Terminal Aerodrome Forecast
Issued by NWS Sterling, VA

Home | Current Version | Previous Version | Text Only | Print | Product List | Glossary On
Versions: 1 2 3 4 5 6 7 8 9 10 11 12 13 14 15 16 17
000
FTUS41 KLWX 230500
TAFMRB
TAF
KMRB 230529Z 2306/2406 13006KT P6SM BKN015 OVC035
     FM230800 13005KT P6SM OVC010
     FM230900 13006KT 5SM -SHRA BR OVC008
     FM231200 12007KT 2SM -SHRA BR OVC003
     FM231400 11006KT 3SM -SHRA BR OVC008
     FM231700 11005KT P6SM -SHRA BKN025
     FM232000 08005KT P6SM -SHRA BKN040
     FM240200 10005KT P6SM BKN030=

USA.gov is the U.S. government's official web portal to all federal, state and local government web resources and services.